Time;durP1;ratioP1;P1;durP2;ratioP2;P2;SDS_P1;SDS_P2;PMS_P1;PMS_P2;Temp;Humidity;BMP_temperature;BMP_pressure;BME280_temperature;BME280_humidity;BME280_pressure;Samples;Min_cycle;Max_cycle;Signal;HPM_P1;HPM_P2
2023/01/23 00:01:34;;;;;;;1.27;1.17;;;3.10;99.90;;;;;;5029635;28;20288;-65
2023/01/23 00:04:03;;;;;;;1.73;1.52;;;3.10;99.90;;;;;;5033749;28;20230;-65
2023/01/23 00:06:31;;;;;;;1.83;1.70;;;3.00;99.90;;;;;;5050893;28;20713;-65
2023/01/23 00:08:59;;;;;;;2.58;2.10;;;2.90;99.90;;;;;;5049156;28;20298;-65
2023/01/23 00:11:29;;;;;;;2.00;1.70;;;2.80;99.90;;;;;;5013984;28;20689;-65
2023/01/23 00:13:58;;;;;;;2.28;1.20;;;2.60;99.90;;;;;;5030624;28;20243;-65
2023/01/23 00:16:30;;;;;;;1.10;1.00;;;2.60;99.90;;;;;;5030992;28;20657;-66
2023/01/23 00:18:58;;;;;;;1.85;1.52;;;2.50;99.90;;;;;;5030914;28;20281;-64
2023/01/23 00:21:28;;;;;;;2.22;1.70;;;2.50;99.90;;;;;;5034032;28;20200;-65
2023/01/23 00:24:00;;;;;;;1.27;1.10;;;2.40;99.90;;;;;;5034866;28;20667;-64
2023/01/23 00:26:31;;;;;;;1.10;1.05;;;2.40;99.90;;;;;;5033624;28;20240;-64
2023/01/23 00:28:59;;;;;;;1.55;1.45;;;2.60;99.90;;;;;;5034346;28;20204;-65
2023/01/23 00:31:30;;;;;;;1.75;1.65;;;2.50;99.90;;;;;;5033870;28;20299;-65
2023/01/23 00:33:59;;;;;;;1.70;1.60;;;2.40;99.90;;;;;;5034669;28;20233;-65
2023/01/23 00:36:29;;;;;;;1.02;0.93;;;2.60;99.90;;;;;;5034305;28;20259;-64
2023/01/23 00:38:57;;;;;;;2.05;1.85;;;2.60;99.90;;;;;;5034445;28;20194;-64
2023/01/23 00:41:25;;;;;;;2.22;1.17;;;2.50;99.90;;;;;;5033256;28;20623;-64
2023/01/23 00:43:53;;;;;;;1.40;1.10;;;2.50;99.90;;;;;;5026628;28;20236;-64
2023/01/23 00:46:22;;;;;;;1.40;0.93;;;2.40;99.90;;;;;;5014450;28;20211;-64
2023/01/23 00:48:51;;;;;;;1.77;1.60;;;2.40;99.90;;;;;;5014518;28;20225;-64
2023/01/23 00:51:19;;;;;;;1.40;0.95;;;2.60;99.90;;;;;;5013951;28;20236;-64
2023/01/23 00:53:47;;;;;;;1.65;1.20;;;2.50;99.90;;;;;;5014551;28;20195;-65
2023/01/23 00:56:15;;;;;;;1.60;1.20;;;2.40;99.90;;;;;;5016930;28;20227;-65
2023/01/23 00:58:43;;;;;;;2.50;1.35;;;2.30;99.90;;;;;;5033818;28;20206;-66
2023/01/23 01:01:12;;;;;;;2.38;1.25;;;2.40;99.90;;;;;;5032541;28;20705;-65
2023/01/23 01:03:40;;;;;;;3.05;1.33;;;2.40;99.90;;;;;;5034093;28;20194;-65
2023/01/23 01:06:10;;;;;;;2.05;1.42;;;2.40;99.90;;;;;;5033215;28;20204;-65
2023/01/23 01:08:39;;;;;;;2.35;1.38;;;2.50;99.90;;;;;;5034151;28;20240;-65
2023/01/23 01:11:07;;;;;;;2.45;1.35;;;2.60;99.90;;;;;;5033165;28;20235;-66
2023/01/23 01:13:35;;;;;;;1.33;1.23;;;2.60;99.90;;;;;;5033548;28;20686;-65
2023/01/23 01:16:04;;;;;;;1.83;1.70;;;2.60;99.90;;;;;;5033881;28;20252;-65
2023/01/23 01:18:32;;;;;;;2.20;1.80;;;2.70;99.90;;;;;;5032478;28;20568;-65
2023/01/23 01:21:00;;;;;;;1.08;0.98;;;2.90;99.90;;;;;;5032957;28;20696;-65
2023/01/23 01:23:29;;;;;;;1.20;1.08;;;2.80;99.90;;;;;;5033810;28;20202;-65
2023/01/23 01:25:59;;;;;;;1.55;1.45;;;2.80;99.90;;;;;;5033205;28;20295;-65
2023/01/23 01:28:29;;;;;;;2.22;1.48;;;2.80;99.90;;;;;;5033381;28;20201;-64
2023/01/23 01:30:57;;;;;;;1.27;1.15;;;2.70;99.90;;;;;;5032218;28;20593;-64
2023/01/23 01:33:25;;;;;;;1.33;1.23;;;2.80;99.90;;;;;;5032913;28;20198;-64
2023/01/23 01:35:55;;;;;;;1.58;1.48;;;2.70;99.90;;;;;;5041617;22;20530;-63
2023/01/23 01:38:23;;;;;;;1.98;1.52;;;2.70;99.90;;;;;;5013605;28;20236;-63
2023/01/23 01:40:52;;;;;;;1.50;1.40;;;2.60;99.90;;;;;;5012873;28;20280;-62
2023/01/23 01:43:22;;;;;;;1.73;1.55;;;2.50;99.90;;;;;;5013399;28;20286;-63
2023/01/23 01:46:17;;;;;;;1.20;1.02;;;2.60;99.90;;;;;;4997355;28;20305;-62
2023/01/23 01:48:50;;;;;;;1.00;0.82;;;2.70;99.90;;;;;;4980309;28;20207;-63
2023/01/23 01:51:32;;;;;;;1.95;1.48;;;2.70;99.90;;;;;;4993084;28;20710;-62
2023/01/23 01:54:06;;;;;;;1.98;1.35;;;2.70;99.90;;;;;;4993850;28;20199;-63
2023/01/23 01:56:39;;;;;;;1.45;1.35;;;2.70;99.90;;;;;;4976477;28;20290;-63
2023/01/23 01:59:08;;;;;;;1.90;1.50;;;2.70;99.90;;;;;;4993170;28;20230;-64
2023/01/23 02:01:36;;;;;;;2.05;1.60;;;2.80;99.90;;;;;;4993026;28;20218;-63
2023/01/23 02:04:05;;;;;;;1.83;1.60;;;2.90;99.90;;;;;;4993288;28;20277;-63
2023/01/23 02:06:33;;;;;;;2.42;1.52;;;2.90;99.90;;;;;;4993915;28;20636;-63
2023/01/23 02:09:04;;;;;;;1.90;1.75;;;2.80;99.90;;;;;;4993478;28;20235;-63
2023/01/23 02:11:33;;;;;;;1.65;1.27;;;2.70;99.90;;;;;;4992574;28;20261;-62
2023/01/23 02:14:03;;;;;;;1.52;1.42;;;2.50;99.90;;;;;;4992923;28;20286;-63
2023/01/23 02:16:38;;;;;;;1.20;1.10;;;2.50;99.90;;;;;;4993714;28;20201;-63
2023/01/23 02:19:18;;;;;;;1.77;1.67;;;2.50;99.90;;;;;;4993570;28;20726;-63
2023/01/23 02:21:50;;;;;;;0.80;0.80;;;2.60;99.90;;;;;;4992894;28;20277;-63
2023/01/23 02:24:25;;;;;;;1.33;1.10;;;2.60;99.90;;;;;;4992881;28;20253;-64
2023/01/23 02:26:56;;;;;;;2.15;1.40;;;2.70;99.90;;;;;;4993174;28;20233;-63
2023/01/23 02:29:24;;;;;;;1.38;1.27;;;2.70;99.90;;;;;;4992751;28;20210;-64
2023/01/23 02:31:54;;;;;;;1.65;1.38;;;2.60;99.90;;;;;;4992424;28;20210;-63
2023/01/23 02:34:24;;;;;;;1.42;1.00;;;2.50;99.90;;;;;;4992781;28;20809;-63
2023/01/23 02:36:52;;;;;;;1.35;0.98;;;2.40;99.90;;;;;;4993190;28;20253;-63
2023/01/23 02:39:21;;;;;;;1.13;0.75;;;2.70;99.90;;;;;;4993032;28;20577;-64
2023/01/23 02:41:50;;;;;;;1.20;1.10;;;2.70;99.90;;;;;;4991353;28;20195;-65
2023/01/23 02:44:25;;;;;;;1.63;1.25;;;2.70;99.90;;;;;;4992667;28;20222;-65
2023/01/23 02:46:53;;;;;;;3.00;1.17;;;2.50;99.90;;;;;;4992859;28;20236;-64
2023/01/23 02:49:21;;;;;;;1.55;1.20;;;2.40;99.90;;;;;;4993049;28;20281;-64
2023/01/23 02:51:49;;;;;;;1.33;1.20;;;2.30;99.90;;;;;;4991960;28;20321;-64
2023/01/23 02:54:36;;;;;;;0.85;0.70;;;2.30;99.90;;;;;;4992724;28;20206;-64
2023/01/23 02:57:04;;;;;;;2.95;1.50;;;2.40;99.90;;;;;;4992544;28;20734;-64
2023/01/23 03:02:18;;;;;;;2.35;0.93;;;2.30;99.90;;;;;;4973371;28;20195;-65
2023/01/23 03:04:46;;;;;;;0.70;0.60;;;2.20;99.90;;;;;;4973109;28;20216;-64
2023/01/23 03:07:14;;;;;;;1.35;1.20;;;2.30;99.90;;;;;;4973386;28;20199;-65
2023/01/23 03:09:45;;;;;;;1.38;0.93;;;2.50;99.90;;;;;;4972322;28;20683;-64
2023/01/23 03:12:13;;;;;;;1.40;0.70;;;2.60;99.90;;;;;;4972803;28;20269;-65
2023/01/23 03:14:42;;;;;;;1.33;1.23;;;2.40;99.90;;;;;;4973061;28;20225;-65
2023/01/23 03:17:13;;;;;;;1.67;1.05;;;2.20;99.90;;;;;;4983069;28;20296;-65
2023/01/23 03:19:41;;;;;;;1.15;1.00;;;2.10;99.90;;;;;;4991661;28;20258;-65
2023/01/23 03:22:09;;;;;;;2.35;1.35;;;2.10;99.90;;;;;;4992467;28;20628;-65
2023/01/23 03:24:37;;;;;;;1.30;1.20;;;2.10;99.90;;;;;;4992159;28;20285;-65
2023/01/23 03:27:06;;;;;;;1.65;0.95;;;2.10;99.90;;;;;;4992526;28;20279;-65
2023/01/23 03:32:21;;;;;;;1.50;1.40;;;2.10;99.90;;;;;;4992366;28;20312;-64
2023/01/23 03:34:49;;;;;;;1.30;1.20;;;2.10;99.90;;;;;;4991639;28;20414;-65
2023/01/23 03:37:18;;;;;;;1.40;1.08;;;2.10;99.90;;;;;;4991702;28;20623;-64
2023/01/23 03:42:33;;;;;;;1.30;1.20;;;2.20;99.90;;;;;;4991791;28;20199;-64
2023/01/23 03:45:01;;;;;;;1.75;1.65;;;2.30;99.90;;;;;;4991802;28;20695;-64
2023/01/23 03:47:30;;;;;;;1.30;1.00;;;2.30;99.90;;;;;;4991861;28;20917;-64
2023/01/23 03:49:58;;;;;;;1.95;1.38;;;2.40;99.90;;;;;;4991133;28;20286;-64
2023/01/23 03:52:26;;;;;;;1.88;1.75;;;2.30;99.90;;;;;;4991787;28;20302;-64
2023/01/23 03:54:54;;;;;;;1.23;0.80;;;2.50;99.90;;;;;;4991832;28;20666;-64
2023/01/23 03:57:22;;;;;;;1.63;1.23;;;2.70;99.90;;;;;;4991287;28;20287;-62
2023/01/23 03:59:50;;;;;;;2.33;1.30;;;2.60;99.90;;;;;;4982803;28;20234;-63
2023/01/23 04:02:18;;;;;;;1.55;0.98;;;2.60;99.90;;;;;;4991655;28;20740;-62
2023/01/23 04:04:47;;;;;;;1.80;1.33;;;2.40;99.90;;;;;;4991850;28;20596;-62
2023/01/23 04:07:15;;;;;;;1.40;1.30;;;2.30;99.90;;;;;;4991304;28;21148;-62
2023/01/23 04:09:42;;;;;;;1.33;1.17;;;2.20;99.90;;;;;;4991177;28;20281;-65
2023/01/23 04:12:10;;;;;;;1.67;1.40;;;2.20;99.90;;;;;;4991629;28;20218;-63
2023/01/23 04:14:39;;;;;;;0.85;0.85;;;2.20;99.90;;;;;;4991287;28;20226;-63
2023/01/23 04:17:08;;;;;;;1.02;0.95;;;2.20;99.90;;;;;;4991720;28;20289;-63
2023/01/23 04:19:36;;;;;;;1.05;0.95;;;2.20;99.90;;;;;;4991061;28;20282;-63
2023/01/23 04:22:05;;;;;;;1.45;1.17;;;2.10;99.90;;;;;;4991308;28;20212;-63
2023/01/23 04:24:33;;;;;;;1.13;0.93;;;2.10;99.90;;;;;;4991403;28;20241;-63
2023/01/23 04:27:01;;;;;;;1.33;1.13;;;2.10;99.90;;;;;;4991384;28;20226;-63
2023/01/23 04:29:29;;;;;;;1.40;0.90;;;2.10;99.90;;;;;;4991069;28;20213;-62
2023/01/23 04:31:57;;;;;;;0.60;0.60;;;2.00;99.90;;;;;;4991092;28;20221;-63
2023/01/23 04:34:24;;;;;;;1.20;1.10;;;2.00;99.90;;;;;;4991196;28;20610;-63
2023/01/23 04:36:52;;;;;;;0.93;0.82;;;2.00;99.90;;;;;;4991287;28;20618;-64
2023/01/23 04:39:21;;;;;;;1.13;0.95;;;2.10;99.90;;;;;;4991457;28;20203;-65
2023/01/23 04:41:49;;;;;;;1.20;1.10;;;2.10;99.90;;;;;;4990316;28;20220;-65
2023/01/23 04:44:20;;;;;;;1.23;1.00;;;2.20;99.90;;;;;;4991374;28;20306;-64
2023/01/23 04:46:49;;;;;;;1.23;0.77;;;2.30;99.90;;;;;;4991471;28;20199;-64
2023/01/23 04:49:17;;;;;;;1.08;0.88;;;2.20;99.90;;;;;;4991613;28;20611;-64
2023/01/23 04:51:46;;;;;;;2.35;1.42;;;2.20;99.90;;;;;;4990104;28;20695;-63
2023/01/23 04:54:14;;;;;;;2.38;1.38;;;2.30;99.90;;;;;;4991244;28;20226;-64
2023/01/23 04:56:44;;;;;;;0.93;0.82;;;2.20;99.90;;;;;;4991373;28;20205;-63
2023/01/23 04:59:13;;;;;;;1.80;1.50;;;2.10;99.90;;;;;;4990691;28;20207;-64
2023/01/23 05:01:41;;;;;;;0.80;0.80;;;2.20;99.90;;;;;;4971129;28;20205;-63
2023/01/23 05:04:09;;;;;;;1.73;1.23;;;2.30;99.90;;;;;;4971913;28;20283;-63
2023/01/23 05:06:37;;;;;;;1.20;0.70;;;2.40;99.90;;;;;;4986535;28;20198;-63
2023/01/23 05:09:05;;;;;;;1.27;1.17;;;2.30;99.90;;;;;;4994892;28;20289;-63
2023/01/23 05:11:33;;;;;;;1.02;0.77;;;2.30;99.90;;;;;;4993416;28;20278;-63
2023/01/23 05:14:02;;;;;;;1.50;1.33;;;2.20;99.90;;;;;;4994536;28;20221;-63
2023/01/23 05:16:30;;;;;;;1.05;0.90;;;2.20;99.90;;;;;;4994804;28;20206;-64
2023/01/23 05:18:58;;;;;;;1.17;1.08;;;2.30;99.90;;;;;;4994618;28;20930;-64
2023/01/23 05:21:26;;;;;;;1.00;0.70;;;2.50;99.90;;;;;;4992288;28;20206;-63
2023/01/23 05:23:53;;;;;;;0.90;0.80;;;2.50;99.90;;;;;;4994198;28;20209;-63
2023/01/23 05:26:21;;;;;;;1.13;0.60;;;2.60;99.90;;;;;;4994513;28;20282;-63
2023/01/23 05:28:49;;;;;;;1.02;0.93;;;2.60;99.90;;;;;;4991186;28;20203;-64
2023/01/23 05:31:18;;;;;;;1.10;1.00;;;2.70;99.90;;;;;;4981896;28;20215;-63
2023/01/23 05:33:46;;;;;;;1.23;0.90;;;2.60;99.90;;;;;;4988989;28;20633;-62
2023/01/23 05:36:14;;;;;;;2.33;1.63;;;2.70;99.90;;;;;;4991791;28;20243;-63
2023/01/23 05:38:45;;;;;;;1.15;1.05;;;2.60;99.90;;;;;;4992622;28;20191;-65
2023/01/23 05:41:13;;;;;;;0.90;0.90;;;2.70;99.90;;;;;;4991380;28;20639;-63
2023/01/23 05:43:42;;;;;;;1.30;1.20;;;2.50;99.90;;;;;;4989374;28;20222;-64
2023/01/23 05:46:10;;;;;;;1.38;1.27;;;2.40;99.90;;;;;;4988857;28;20301;-64
2023/01/23 05:48:40;;;;;;;0.95;0.90;;;2.40;99.90;;;;;;4989097;28;20212;-65
2023/01/23 05:51:07;;;;;;;0.90;0.90;;;2.50;99.90;;;;;;4991374;28;20289;-64
2023/01/23 05:53:36;;;;;;;1.25;0.98;;;2.50;99.90;;;;;;4993964;28;20222;-64
2023/01/23 05:56:06;;;;;;;1.00;0.90;;;2.40;99.90;;;;;;4994021;28;20228;-65
2023/01/23 05:58:34;;;;;;;1.30;1.00;;;2.50;99.90;;;;;;4993407;28;20580;-65
2023/01/23 06:01:02;;;;;;;1.00;0.77;;;2.50;99.90;;;;;;4992280;28;20186;-64
2023/01/23 06:03:30;;;;;;;1.00;0.90;;;2.70;99.90;;;;;;4992873;28;20321;-65
2023/01/23 06:06:01;;;;;;;0.90;0.80;;;2.80;99.90;;;;;;4993602;28;20231;-65
2023/01/23 06:08:29;;;;;;;1.30;1.20;;;2.70;99.90;;;;;;4984906;28;20215;-65
2023/01/23 06:10:58;;;;;;;1.98;1.60;;;2.50;99.90;;;;;;4984089;28;20195;-66
2023/01/23 06:13:26;;;;;;;1.08;0.98;;;2.40;99.90;;;;;;4989631;28;20337;-65
2023/01/23 06:15:55;;;;;;;1.80;0.98;;;2.40;99.90;;;;;;4993975;28;20601;-66
2023/01/23 06:18:23;;;;;;;1.23;0.98;;;2.30;99.90;;;;;;4994452;28;20209;-66
2023/01/23 06:20:57;;;;;;;0.93;0.93;;;2.30;99.90;;;;;;4990502;28;20222;-65
2023/01/23 06:23:27;;;;;;;1.88;1.38;;;2.30;99.90;;;;;;4996179;28;20198;-66
2023/01/23 06:25:58;;;;;;;2.55;1.85;;;2.30;99.90;;;;;;4998176;28;20346;-66
2023/01/23 06:28:26;;;;;;;1.42;1.33;;;2.30;99.90;;;;;;4993395;28;20198;-66
2023/01/23 06:30:54;;;;;;;1.77;1.33;;;2.30;99.90;;;;;;4996930;28;20205;-66
2023/01/23 06:33:22;;;;;;;1.42;1.33;;;2.30;99.90;;;;;;4995559;28;20286;-66
2023/01/23 06:35:56;;;;;;;1.35;1.25;;;2.20;99.90;;;;;;4997124;28;20655;-66
2023/01/23 06:38:25;;;;;;;1.92;1.42;;;2.20;99.90;;;;;;4989396;28;20287;-66
2023/01/23 06:40:53;;;;;;;2.15;1.17;;;2.20;99.90;;;;;;4992844;28;20207;-65
2023/01/23 06:43:21;;;;;;;1.10;0.90;;;2.20;99.90;;;;;;4995850;28;20228;-66
2023/01/23 06:45:49;;;;;;;2.17;1.45;;;2.20;99.90;;;;;;4997230;28;20224;-65
2023/01/23 06:48:18;;;;;;;2.00;1.15;;;2.20;99.90;;;;;;4997084;28;20264;-66
2023/01/23 06:50:45;;;;;;;1.10;0.90;;;2.20;99.90;;;;;;4987436;28;20668;-66
2023/01/23 06:53:15;;;;;;;1.35;1.05;;;2.20;99.90;;;;;;4990738;28;20234;-66
2023/01/23 06:55:45;;;;;;;1.23;1.13;;;2.20;99.90;;;;;;4992512;28;20396;-65
2023/01/23 06:58:12;;;;;;;0.80;0.70;;;2.10;99.90;;;;;;4994531;28;20226;-64
2023/01/23 07:00:43;;;;;;;1.55;1.00;;;2.10;99.90;;;;;;4995478;28;20202;-66
2023/01/23 07:03:11;;;;;;;1.60;1.02;;;2.10;99.90;;;;;;4993980;28;20725;-66
2023/01/23 07:05:42;;;;;;;0.80;0.80;;;2.20;99.90;;;;;;4992022;28;20226;-66
2023/01/23 07:08:10;;;;;;;1.33;1.20;;;2.20;99.90;;;;;;4990211;28;20195;-66
2023/01/23 07:10:38;;;;;;;1.45;1.35;;;2.20;99.90;;;;;;4993227;28;20212;-66
2023/01/23 07:13:10;;;;;;;1.30;1.20;;;2.20;99.90;;;;;;4994833;28;20201;-66
2023/01/23 07:15:38;;;;;;;0.90;0.80;;;2.20;99.90;;;;;;4991812;28;20316;-66
2023/01/23 07:18:09;;;;;;;2.72;1.35;;;2.10;99.90;;;;;;4990599;28;20620;-66
2023/01/23 07:20:37;;;;;;;1.90;1.55;;;2.10;99.90;;;;;;4989989;28;20202;-66
2023/01/23 07:23:05;;;;;;;1.25;0.90;;;2.10;99.90;;;;;;4992291;28;20203;-66
2023/01/23 07:25:32;;;;;;;1.20;1.10;;;2.10;99.90;;;;;;4987167;28;20652;-64
2023/01/23 07:28:00;;;;;;;1.23;1.00;;;2.20;99.90;;;;;;4980054;28;20222;-66
2023/01/23 07:30:30;;;;;;;1.02;0.93;;;2.20;99.90;;;;;;4989102;28;20190;-66
2023/01/23 07:32:57;;;;;;;1.00;0.80;;;2.10;99.90;;;;;;4990911;28;20202;-66
2023/01/23 07:35:26;;;;;;;1.92;1.10;;;2.10;99.90;;;;;;5032017;22;20663;-63
2023/01/23 07:37:54;;;;;;;1.33;1.23;;;2.10;99.90;;;;;;5030565;28;20544;-63
2023/01/23 07:40:22;;;;;;;2.35;1.23;;;2.10;99.90;;;;;;5030649;28;20297;-63
2023/01/23 07:42:50;;;;;;;0.80;0.70;;;2.10;99.90;;;;;;5031115;28;20203;-63
2023/01/23 07:45:18;;;;;;;1.40;1.30;;;2.10;99.90;;;;;;5031030;28;20287;-63
2023/01/23 07:47:47;;;;;;;1.58;1.15;;;2.10;99.90;;;;;;5030983;28;20277;-64
2023/01/23 07:50:15;;;;;;;1.98;1.40;;;2.10;99.90;;;;;;5030279;28;20277;-63
2023/01/23 07:52:43;;;;;;;1.17;1.08;;;2.10;99.90;;;;;;5031124;28;20201;-63
2023/01/23 07:55:11;;;;;;;1.88;1.20;;;2.10;99.90;;;;;;5031211;28;20772;-65
2023/01/23 07:57:39;;;;;;;1.60;1.15;;;2.20;99.90;;;;;;5030796;28;20728;-63
2023/01/23 08:00:08;;;;;;;1.40;1.10;;;2.20;99.90;;;;;;5030289;28;20280;-63
2023/01/23 08:02:37;;;;;;;1.40;1.30;;;2.20;99.90;;;;;;5031105;28;20322;-63
2023/01/23 08:05:07;;;;;;;1.10;0.85;;;2.20;99.90;;;;;;5030551;28;20213;-63
2023/01/23 08:07:35;;;;;;;1.85;1.60;;;2.30;99.90;;;;;;5030530;28;20650;-63
2023/01/23 08:10:03;;;;;;;1.20;1.10;;;2.40;99.90;;;;;;5030185;28;20224;-63
2023/01/23 08:12:31;;;;;;;1.25;0.95;;;2.40;99.90;;;;;;5030962;28;20696;-63
2023/01/23 08:14:59;;;;;;;1.15;1.00;;;2.30;99.90;;;;;;5030679;28;20808;-63
2023/01/23 08:17:27;;;;;;;1.27;1.00;;;2.30;99.90;;;;;;5030834;28;20236;-63
2023/01/23 08:19:55;;;;;;;1.27;1.17;;;2.30;99.90;;;;;;5029875;28;20210;-63
2023/01/23 08:22:24;;;;;;;1.17;1.08;;;2.40;99.90;;;;;;5030812;28;20754;-63
2023/01/23 08:24:51;;;;;;;1.63;1.42;;;2.30;99.90;;;;;;5030830;28;20292;-63
2023/01/23 08:27:19;;;;;;;1.48;1.05;;;2.40;99.90;;;;;;5030742;28;20308;-65
2023/01/23 08:29:47;;;;;;;1.95;1.35;;;2.50;99.90;;;;;;5029793;28;20236;-63
2023/01/23 08:32:15;;;;;;;1.10;1.00;;;2.50;99.90;;;;;;5030716;28;20205;-63
2023/01/23 08:34:43;;;;;;;1.77;1.13;;;2.50;99.90;;;;;;5029991;28;20323;-63
2023/01/23 08:37:11;;;;;;;1.42;1.25;;;2.60;99.90;;;;;;5010963;28;20741;-63
2023/01/23 08:39:40;;;;;;;1.30;0.90;;;2.60;99.90;;;;;;5010132;28;20587;-63
2023/01/23 08:42:08;;;;;;;1.70;1.38;;;2.60;99.90;;;;;;5014775;28;20670;-63
2023/01/23 08:44:36;;;;;;;1.52;1.23;;;2.60;99.90;;;;;;5014612;28;20225;-63
2023/01/23 08:47:04;;;;;;;1.55;1.20;;;2.60;99.90;;;;;;5014724;28;20289;-63
2023/01/23 08:49:32;;;;;;;1.25;0.90;;;2.60;99.90;;;;;;5013870;28;20292;-63
2023/01/23 08:52:00;;;;;;;2.10;1.70;;;2.60;99.90;;;;;;5033647;28;20564;-63
2023/01/23 08:54:27;;;;;;;1.17;1.05;;;2.60;99.90;;;;;;5034174;28;20202;-63
2023/01/23 08:56:57;;;;;;;0.90;0.90;;;2.60;99.90;;;;;;5034228;28;20243;-63
2023/01/23 08:59:25;;;;;;;3.00;1.23;;;2.60;99.90;;;;;;5033492;28;20300;-63
2023/01/23 09:01:53;;;;;;;1.80;1.35;;;2.60;99.90;;;;;;5033439;28;20205;-63
2023/01/23 09:04:21;;;;;;;1.77;1.30;;;2.60;99.90;;;;;;5034135;28;20197;-63
2023/01/23 09:06:48;;;;;;;1.35;1.20;;;2.60;99.90;;;;;;5033443;28;20199;-63
2023/01/23 09:09:17;;;;;;;1.30;1.20;;;2.60;99.90;;;;;;5033566;28;20674;-63
2023/01/23 09:11:45;;;;;;;2.75;1.65;;;2.60;99.90;;;;;;5033385;28;20292;-63
2023/01/23 09:14:14;;;;;;;1.40;1.30;;;2.60;99.90;;;;;;5033859;28;20669;-63
2023/01/23 09:16:42;;;;;;;2.15;1.95;;;2.60;99.90;;;;;;5033366;28;20217;-63
2023/01/23 09:19:11;;;;;;;1.20;1.10;;;2.60;99.90;;;;;;5033719;28;20194;-63
2023/01/23 09:21:39;;;;;;;1.33;1.10;;;2.60;99.90;;;;;;5033389;28;20597;-63
2023/01/23 09:24:07;;;;;;;1.55;1.05;;;2.50;99.90;;;;;;5033739;28;20284;-63
2023/01/23 09:26:35;;;;;;;1.85;1.13;;;2.60;99.90;;;;;;5033396;28;20372;-63
2023/01/23 09:29:03;;;;;;;1.38;1.15;;;2.50;99.90;;;;;;5033233;28;20208;-63
2023/01/23 09:31:32;;;;;;;1.70;1.55;;;2.50;99.90;;;;;;5032666;28;20193;-63
2023/01/23 09:34:02;;;;;;;1.30;1.08;;;2.60;99.90;;;;;;5033173;28;20228;-65
2023/01/23 09:36:30;;;;;;;1.98;1.77;;;2.60;99.90;;;;;;5033095;28;20274;-64
2023/01/23 09:39:10;;;;;;;2.42;1.33;;;2.60;99.90;;;;;;5033568;28;20658;-63
2023/01/23 09:41:40;;;;;;;1.90;1.27;;;2.70;99.90;;;;;;5032659;28;20623;-63
2023/01/23 09:44:15;;;;;;;1.63;1.52;;;2.60;99.90;;;;;;5032958;28;20256;-63
2023/01/23 09:46:47;;;;;;;2.63;1.38;;;2.70;99.90;;;;;;5032984;28;20773;-63
2023/01/23 09:49:23;;;;;;;1.15;1.00;;;2.70;99.90;;;;;;5033388;28;20630;-63
2023/01/23 09:51:56;;;;;;;1.67;1.02;;;2.70;99.90;;;;;;5032397;28;20754;-64
2023/01/23 09:54:35;;;;;;;1.05;0.95;;;2.70;99.90;;;;;;5032854;28;20201;-64
2023/01/23 09:57:11;;;;;;;2.78;1.52;;;2.80;99.90;;;;;;5033245;28;20225;-63
2023/01/23 09:59:40;;;;;;;2.63;1.83;;;2.80;99.90;;;;;;5032265;28;20285;-63
2023/01/23 10:02:27;;;;;;;2.22;1.58;;;2.90;99.90;;;;;;5032429;28;20221;-64
2023/01/23 10:04:57;;;;;;;1.67;1.55;;;3.00;99.90;;;;;;5033059;28;20324;-63
2023/01/23 10:07:44;;;;;;;1.98;1.70;;;3.00;99.90;;;;;;5033087;28;20264;-63
2023/01/23 10:10:50;;;;;;;1.02;0.90;;;3.00;99.90;;;;;;5032243;28;20237;-63
2023/01/23 10:13:22;;;;;;;2.08;1.73;;;3.10;99.90;;;;;;5012881;28;20681;-63
2023/01/23 10:16:26;;;;;;;2.50;1.80;;;3.10;99.90;;;;;;5032224;28;20602;-63
2023/01/23 10:19:19;;;;;;;2.05;0.98;;;3.10;99.90;;;;;;5032269;28;20587;-63
2023/01/23 10:21:55;;;;;;;1.52;1.42;;;3.10;99.90;;;;;;5031988;28;20220;-63
2023/01/23 10:24:39;;;;;;;2.55;1.30;;;3.10;99.90;;;;;;5032654;28;20189;-63
2023/01/23 10:27:17;;;;;;;2.97;2.65;;;3.00;99.90;;;;;;5032600;28;20198;-63
2023/01/23 10:29:49;;;;;;;3.58;1.95;;;3.10;99.90;;;;;;5031227;28;20296;-63
2023/01/23 10:32:24;;;;;;;1.27;1.00;;;3.20;99.90;;;;;;5032229;28;20197;-63
2023/01/23 10:34:59;;;;;;;1.80;1.50;;;3.20;99.90;;;;;;5032260;28;20263;-64
2023/01/23 10:37:42;;;;;;;2.10;1.90;;;3.20;99.90;;;;;;5032403;28;20307;-63
2023/01/23 10:40:14;;;;;;;2.75;1.90;;;3.20;99.90;;;;;;5031503;28;20184;-64
2023/01/23 10:42:43;;;;;;;1.40;1.15;;;3.20;99.90;;;;;;5032295;28;20193;-64
2023/01/23 10:45:18;;;;;;;2.08;1.73;;;3.30;99.90;;;;;;5032186;28;20223;-64
2023/01/23 10:47:48;;;;;;;1.40;1.30;;;3.30;99.90;;;;;;5032000;28;20200;-63
2023/01/23 10:50:36;;;;;;;1.52;1.42;;;3.50;99.90;;;;;;5031539;28;20206;-64
2023/01/23 10:53:08;;;;;;;1.27;1.17;;;3.50;99.90;;;;;;5032163;28;20235;-63
2023/01/23 10:55:36;;;;;;;1.90;1.80;;;3.40;99.90;;;;;;5032032;28;20222;-64
2023/01/23 10:58:05;;;;;;;1.75;1.65;;;3.50;99.90;;;;;;5031981;28;20262;-63
2023/01/23 11:00:36;;;;;;;1.85;1.20;;;3.50;99.90;;;;;;5030711;28;20205;-63
2023/01/23 11:03:28;;;;;;;2.30;1.20;;;3.50;99.90;;;;;;5030818;28;20330;-63
2023/01/23 11:06:01;;;;;;;1.73;1.10;;;3.50;99.90;;;;;;5031830;28;20212;-63
2023/01/23 11:08:32;;;;;;;1.55;1.45;;;3.60;99.90;;;;;;5031823;28;20627;-63
2023/01/23 11:11:23;;;;;;;1.27;1.17;;;3.60;99.90;;;;;;5031128;28;20367;-64
2023/01/23 11:14:03;;;;;;;3.55;2.20;;;3.60;99.90;;;;;;5031727;28;20207;-64
2023/01/23 11:16:31;;;;;;;1.15;1.05;;;3.60;99.90;;;;;;5031170;28;20260;-63
2023/01/23 11:19:11;;;;;;;1.65;1.20;;;3.70;99.90;;;;;;5031330;28;20198;-64
2023/01/23 11:21:52;;;;;;;1.88;1.52;;;3.60;99.90;;;;;;5030659;28;20193;-64
2023/01/23 11:24:27;;;;;;;1.23;1.13;;;3.60;99.90;;;;;;5031610;28;20728;-64
2023/01/23 11:27:17;;;;;;;2.70;2.10;;;3.60;99.90;;;;;;5031553;28;20205;-64
2023/01/23 11:29:58;;;;;;;2.35;1.65;;;3.70;99.90;;;;;;5028109;28;20279;-64
2023/01/23 11:32:29;;;;;;;1.83;1.40;;;3.80;99.90;;;;;;5031100;28;20326;-64
2023/01/23 11:35:11;;;;;;;2.15;1.08;;;3.80;99.90;;;;;;5016703;28;20247;-63
2023/01/23 11:37:41;;;;;;;1.67;1.33;;;3.80;99.90;;;;;;5017538;28;20303;-64
2023/01/23 11:40:13;;;;;;;1.13;0.80;;;3.90;99.90;;;;;;5030424;28;20708;-64
2023/01/23 11:42:45;;;;;;;1.05;0.95;;;3.80;99.90;;;;;;5031342;28;20653;-64
2023/01/23 11:45:16;;;;;;;1.67;1.05;;;3.80;99.90;;;;;;5030981;28;20252;-64
2023/01/23 11:48:12;;;;;;;1.58;1.40;;;3.80;99.90;;;;;;5030956;28;20273;-64
2023/01/23 11:50:46;;;;;;;2.25;1.23;;;3.80;99.90;;;;;;5030057;28;20280;-63
2023/01/23 11:53:31;;;;;;;2.30;2.10;;;3.80;99.90;;;;;;5031128;28;20213;-64
2023/01/23 11:56:43;;;;;;;1.65;1.40;;;3.80;99.90;;;;;;5031121;28;20267;-64
2023/01/23 11:59:42;;;;;;;1.40;1.30;;;3.80;99.90;;;;;;5016786;28;20216;-63
2023/01/23 12:02:37;;;;;;;2.47;1.90;;;3.80;99.90;;;;;;4981308;28;20213;-64
2023/01/23 12:05:24;;;;;;;1.33;1.23;;;3.90;99.90;;;;;;5025676;28;20248;-63
2023/01/23 12:07:59;;;;;;;2.55;1.90;;;3.90;99.90;;;;;;5030087;28;20220;-64
2023/01/23 12:10:38;;;;;;;1.80;1.70;;;3.90;99.90;;;;;;5028915;28;20275;-64
2023/01/23 12:13:18;;;;;;;1.00;0.90;;;3.90;99.90;;;;;;5030998;28;20202;-63
2023/01/23 12:16:00;;;;;;;2.58;2.15;;;3.90;99.90;;;;;;5032236;28;20217;-63
2023/01/23 12:18:37;;;;;;;3.90;2.60;;;3.90;99.90;;;;;;5034972;28;20220;-63
2023/01/23 12:21:16;;;;;;;1.83;1.55;;;4.10;99.90;;;;;;5034219;28;20261;-64
2023/01/23 12:24:01;;;;;;;1.10;1.02;;;4.40;99.90;;;;;;5034576;28;20223;-64
2023/01/23 12:26:32;;;;;;;2.50;1.50;;;4.40;99.90;;;;;;5015082;28;20299;-63
2023/01/23 12:29:29;;;;;;;1.23;1.15;;;4.50;99.90;;;;;;5018605;28;20643;-64
2023/01/23 12:32:12;;;;;;;1.40;1.17;;;4.40;99.90;;;;;;5002468;28;20292;-64
2023/01/23 12:34:54;;;;;;;1.83;1.30;;;4.30;99.90;;;;;;5034389;28;20256;-64
2023/01/23 12:37:35;;;;;;;2.05;1.30;;;4.30;99.90;;;;;;5034203;28;20308;-64
2023/01/23 12:40:12;;;;;;;1.83;1.25;;;4.40;99.90;;;;;;5033978;28;20234;-63
2023/01/23 12:42:48;;;;;;;2.72;1.80;;;4.40;99.90;;;;;;5034561;28;20713;-64
2023/01/23 12:45:21;;;;;;;1.88;1.42;;;4.40;99.90;;;;;;5034359;28;20213;-63
2023/01/23 12:47:55;;;;;;;1.65;1.38;;;4.50;99.90;;;;;;5034398;28;20193;-63
2023/01/23 12:50:40;;;;;;;1.90;1.60;;;4.60;99.90;;;;;;5033622;28;20275;-63
2023/01/23 12:53:11;;;;;;;2.17;1.77;;;4.40;99.90;;;;;;5034518;28;20704;-63
2023/01/23 12:55:46;;;;;;;2.83;1.90;;;4.40;99.90;;;;;;5034822;28;20214;-64
2023/01/23 12:58:18;;;;;;;1.52;1.38;;;4.40;99.90;;;;;;5033736;28;20350;-63
2023/01/23 13:00:59;;;;;;;2.78;2.00;;;4.40;99.90;;;;;;5033177;28;20299;-64
2023/01/23 13:03:46;;;;;;;1.17;1.08;;;4.40;99.90;;;;;;5034094;28;20205;-64
2023/01/23 13:06:26;;;;;;;2.38;2.03;;;4.40;99.90;;;;;;5034075;28;20766;-64
2023/01/23 13:09:00;;;;;;;2.45;1.35;;;4.50;99.90;;;;;;5033649;28;20279;-64
2023/01/23 13:11:54;;;;;;;1.77;1.40;;;4.60;99.90;;;;;;5033259;28;20614;-64
2023/01/23 13:14:25;;;;;;;1.60;1.50;;;4.60;99.90;;;;;;5033410;28;20289;-63
2023/01/23 13:17:01;;;;;;;1.65;1.40;;;4.60;99.90;;;;;;5033362;28;20217;-64
2023/01/23 13:22:24;;;;;;;1.55;1.35;;;4.60;99.90;;;;;;5033943;28;20201;-63
2023/01/23 13:25:11;;;;;;;1.98;1.30;;;4.60;99.90;;;;;;5033807;28;20572;-63
2023/01/23 13:27:45;;;;;;;1.98;1.40;;;4.60;99.90;;;;;;5033486;28;20300;-63
2023/01/23 13:30:43;;;;;;;1.23;0.90;;;4.60;99.90;;;;;;5032497;28;20729;-63
2023/01/23 13:33:48;;;;;;;2.35;1.00;;;4.60;99.90;;;;;;5033151;28;20205;-63